Indigo Sun — D5OF6 — position and weather

sailwx.info

Track history (hours):
 
Tides and Currents Weather Stations Pressure Air Temp Water Temp Dewpoint Dewpoint Depression Visibility Wind Speed Wind Dir Waves Ship Positions

Indigo Sun

Last reported at 2018-Jun-17 18:17 UTC. Time now 2018-Jun-19 08:15 UTC.
Position N 37°12' E 015°45'.

Length 249 m; draft 12.9 m.

Type: Tanker. MMSI: 636018113.

Date/timePositionNaut miles runAvg speedWind from/ knotsBaromVisibWave heightAir tempDewpointWater temp
2018-Jun-17 18:17N 37°12' E 015°45'  
2018-Jun-14 16:55N 37°05' E 015°30'3 6.0
2018-Jun-14 16:29N 37°05' E 015°33'38012.0
2018-Jun-13 08:44N 36°10' E 023°21'312.4
2018-Jun-13 08:30N 36°12' E 023°24'25912.1
2018-Jun-12 11:04N 40°01' E 025°58'312.2
2018-Jun-12 10:48N 40°01' E 026°02'412.6
2018-Jun-12 10:30N 40°02' E 026°07'52 9.9
2018-Jun-12 05:17N 40°32' E 027°01'99 7.1
2018-Jun-11 15:16N 41°07' E 029°05'510.5
2018-Jun-11 14:46N 41°12' E 029°07'4 7.6
2018-Jun-11 14:12N 41°16' E 029°08'2 7.8
2018-Jun-11 14:00N 41°18' E 029°07'7 8.4
2018-Jun-11 13:10N 41°24' E 029°04'1 5.8
2018-Jun-11 13:00N 41°25' E 029°03'1 1.3
2018-Jun-11 12:29N 41°25' E 029°04'0 0.5
2018-Jun-11 12:00N 41°25' E 029°04'0 0.6
2018-Jun-11 11:30N 41°25' E 029°05'0 0.5
2018-Jun-11 11:00N 41°26' E 029°05'0 0.6
2018-Jun-11 10:30N 41°26' E 029°05'5 2.9
2018-Jun-11 08:54N 41°28' E 029°11'410.4
2018-Jun-11 08:30N 41°31' E 029°14'510.3
2018-Jun-11 08:00N 41°36' E 029°18'4 8.1
2018-Jun-11 07:30N 41°39' E 029°21'3 6.7
2018-Jun-11 07:00N 41°42' E 029°24'611.9
2018-Jun-11 06:30N 41°44' E 029°31'612.1
2018-Jun-11 06:00N 41°47' E 029°38'612.3
2018-Jun-11 05:30N 41°50' E 029°46'612.4
2018-Jun-11 05:00N 41°52' E 029°53'612.2
2018-Jun-11 04:29N 41°55' E 030°01'612.5
2018-Jun-11 04:00N 41°57' E 030°08'612.3
2018-Jun-11 03:30N 41°60' E 030°16'612.5
2018-Jun-11 03:00N 42°02' E 030°23'612.4
2018-Jun-11 02:29N 42°05' E 030°31'612.5
2018-Jun-11 02:00N 42°08' E 030°39'612.4
2018-Jun-11 01:30N 42°10' E 030°46'612.3
2018-Jun-11 01:00N 42°13' E 030°54'812.1
2018-Jun-11 00:23N 42°16' E 031°03'512.1
2018-Jun-11 00:00N 42°18' E 031°09'1212.2
2018-Jun-10 23:01N 42°23' E 031°23'012.6
2018-Jun-10 22:59N 42°24' E 031°23'612.6
2018-Jun-10 22:30N 42°26' E 031°31'612.7
2018-Jun-10 22:00N 42°28' E 031°39'612.4
2018-Jun-10 21:30N 42°31' E 031°47'612.5
2018-Jun-10 21:00N 42°34' E 031°54'612.6
2018-Jun-10 20:30N 42°36' E 032°02'612.5
2018-Jun-10 20:00N 42°39' E 032°10'612.6
2018-Jun-10 19:30N 42°41' E 032°18'612.4
2018-Jun-10 19:00N 42°44' E 032°25'612.1
2018-Jun-10 18:30N 42°47' E 032°33'612.2
2018-Jun-10 18:00N 42°49' E 032°40'612.2
2018-Jun-10 17:30N 42°52' E 032°48'612.4
2018-Jun-10 17:00N 42°54' E 032°55'612.4
2018-Jun-10 16:30N 42°57' E 033°03'612.1
2018-Jun-10 16:00N 42°59' E 033°11'612.0
2018-Jun-10 15:30N 43°02' E 033°18'612.3
2018-Jun-10 15:00N 43°04' E 033°26'1212.1
2018-Jun-10 14:00N 43°10' E 033°41'612.1
2018-Jun-10 13:30N 43°12' E 033°48'812.5
2018-Jun-10 12:52N 43°16' E 033°58'712.6
2018-Jun-10 12:19N 43°19' E 034°07'1112.4
2018-Jun-10 11:27N 43°23' E 034°20'3711.9
2018-Jun-10 08:23N 43°38' E 035°06'512.2
2018-Jun-10 07:57N 43°41' E 035°12'9812.2
2018-Jun-09 23:57N 44°23' E 037°15'612.1
2018-Jun-09 23:30N 44°25' E 037°22'612.2
2018-Jun-09 23:00N 44°28' E 037°30'612.1
2018-Jun-09 22:30N 44°31' E 037°37'5 9.2
2018-Jun-09 22:00N 44°34' E 037°42'4 7.0
2018-Jun-09 21:30N 44°37' E 037°43'1 1.1
2018-Jun-09 21:00N 44°37' E 037°43'0 0.2
2018-Jun-09 20:30N 44°37' E 037°43'0 0.1
2018-Jun-09 20:00N 44°37' E 037°43'0 0.6
2018-Jun-09 19:30N 44°37' E 037°43'0 0.4
2018-Jun-09 19:00N 44°36' E 037°43'0 0.4
2018-Jun-09 18:30N 44°36' E 037°43'0 0.3
2018-Jun-09 18:00N 44°36' E 037°43'0 0.0
2018-Jun-09 17:30N 44°36' E 037°43'1 2.8
2018-Jun-09 17:00N 44°36' E 037°41'4 7.1
2018-Jun-09 16:30N 44°36' E 037°36'2 3.4
2018-Jun-09 16:00N 44°37' E 037°36'0 0.7
2018-Jun-09 15:29N 44°38' E 037°37'0 0.0
2018-Jun-08 22:50N 44°38' E 037°37'0 0.2
2018-Jun-08 22:30N 44°38' E 037°36'1 2.3
2018-Jun-08 22:00N 44°37' E 037°35'1 2.6
2018-Jun-08 21:30N 44°36' E 037°35'1 1.2
2018-Jun-08 21:00N 44°35' E 037°36'2 4.3
2018-Jun-08 20:30N 44°33' E 037°35'2 3.6
2018-Jun-08 20:00N 44°32' E 037°34'1 1.0
2018-Jun-08 19:30N 44°32' E 037°35'0 0.9
2018-Jun-08 19:00N 44°32' E 037°36'0 0.9
2018-Jun-08 18:30N 44°32' E 037°36'3 6.8
2018-Jun-08 18:00N 44°30' E 037°41'4 8.9
2018-Jun-08 17:30N 44°29' E 037°46'2 4.2
2018-Jun-08 17:00N 44°28' E 037°49'0 0.7
2018-Jun-08 16:30N 44°28' E 037°50'0 0.6
2018-Jun-08 16:00N 44°28' E 037°50'0 0.4
2018-Jun-08 15:30N 44°28' E 037°50'1 1.9
2018-Jun-08 14:59N 44°29' E 037°51'3 7.2
2018-Jun-08 14:30N 44°32' E 037°53'0 0.9
2018-Jun-08 14:00N 44°32' E 037°53'0 0.3
2018-Jun-08 13:30N 44°32' E 037°53'0 0.3
2018-Jun-08 13:00N 44°32' E 037°53'0 0.3
2018-Jun-08 12:30N 44°32' E 037°53'0 0.3
2018-Jun-08 12:00N 44°32' E 037°53'0 0.3
2018-Jun-08 11:30N 44°32' E 037°53'0 0.3
2018-Jun-08 11:00N 44°31' E 037°53'0 0.3
2018-Jun-08 10:30N 44°31' E 037°53'0 0.3
2018-Jun-08 10:00N 44°31' E 037°53'0 0.3
2018-Jun-08 09:30N 44°31' E 037°54'0 0.4
2018-Jun-08 09:00N 44°31' E 037°54'0 0.4
2018-Jun-08 08:30N 44°31' E 037°54'0 0.4
2018-Jun-08 08:00N 44°30' E 037°54'0 0.5
2018-Jun-08 07:30N 44°30' E 037°54'0 0.4
2018-Jun-08 07:00N 44°30' E 037°54'0 0.5
2018-Jun-08 06:30N 44°30' E 037°54'0 0.5
2018-Jun-08 06:00N 44°30' E 037°55'0 0.5
2018-Jun-08 05:30N 44°29' E 037°55'0 0.5
2018-Jun-08 05:00N 44°29' E 037°55'0 0.5
2018-Jun-08 04:30N 44°29' E 037°55'0 0.4
2018-Jun-08 04:00N 44°29' E 037°55'0 0.4
2018-Jun-08 03:30N 44°29' E 037°55'0 0.8
2018-Jun-08 03:00N 44°29' E 037°56'2 3.6
2018-Jun-08 02:30N 44°31' E 037°56'0 0.5
2018-Jun-08 02:00N 44°31' E 037°56'0 0.6
2018-Jun-08 01:30N 44°30' E 037°56'0 0.5
2018-Jun-08 01:00N 44°30' E 037°56'0 0.4
2018-Jun-08 00:30N 44°30' E 037°57'0 0.2
2018-Jun-08 00:00N 44°30' E 037°57'1 2.6
2018-Jun-07 23:30N 44°30' E 037°55'4 8.6
2018-Jun-07 23:00N 44°32' E 037°49'2 3.2
2018-Jun-07 22:30N 44°31' E 037°47'1 1.4
2018-Jun-07 22:00N 44°31' E 037°48'1 1.3
2018-Jun-07 21:30N 44°31' E 037°49'1 1.3
2018-Jun-07 21:00N 44°31' E 037°50'1 1.3
2018-Jun-07 20:30N 44°31' E 037°51'1 1.3
2018-Jun-07 20:00N 44°31' E 037°52'1 1.2
2018-Jun-07 19:30N 44°31' E 037°52'1 1.1
2018-Jun-07 19:00N 44°31' E 037°53'1 1.4
2018-Jun-07 18:30N 44°30' E 037°54'  
Track history (hours):
 
Tides and Currents Weather Stations Pressure Air Temp Water Temp Dewpoint Dewpoint Depression Visibility Wind Speed Wind Dir Waves Ship Positions

Indigo Sun

Last reported at 2018-Jun-17 18:17 UTC. Time now 2018-Jun-19 08:15 UTC.
Position N 37°12' E 015°45'.

Length 249 m; draft 12.9 m.

Type: Tanker. MMSI: 636018113.

Date/timePositionNaut miles runAvg speedWind from/ knotsBaromVisibWave heightAir tempDewpointWater temp
2018-Jun-17 18:17N 37°12' E 015°45'  
2018-Jun-14 16:55N 37°05' E 015°30'3 6.0
2018-Jun-14 16:29N 37°05' E 015°33'38012.0
2018-Jun-13 08:44N 36°10' E 023°21'312.4
2018-Jun-13 08:30N 36°12' E 023°24'25912.1
2018-Jun-12 11:04N 40°01' E 025°58'312.2
2018-Jun-12 10:48N 40°01' E 026°02'412.6
2018-Jun-12 10:30N 40°02' E 026°07'52 9.9
2018-Jun-12 05:17N 40°32' E 027°01'99 7.1
2018-Jun-11 15:16N 41°07' E 029°05'510.5
2018-Jun-11 14:46N 41°12' E 029°07'4 7.6
2018-Jun-11 14:12N 41°16' E 029°08'2 7.8
2018-Jun-11 14:00N 41°18' E 029°07'7 8.4
2018-Jun-11 13:10N 41°24' E 029°04'1 5.8
2018-Jun-11 13:00N 41°25' E 029°03'1 1.3
2018-Jun-11 12:29N 41°25' E 029°04'0 0.5
2018-Jun-11 12:00N 41°25' E 029°04'0 0.6
2018-Jun-11 11:30N 41°25' E 029°05'0 0.5
2018-Jun-11 11:00N 41°26' E 029°05'0 0.6
2018-Jun-11 10:30N 41°26' E 029°05'5 2.9
2018-Jun-11 08:54N 41°28' E 029°11'410.4
2018-Jun-11 08:30N 41°31' E 029°14'510.3
2018-Jun-11 08:00N 41°36' E 029°18'4 8.1
2018-Jun-11 07:30N 41°39' E 029°21'3 6.7
2018-Jun-11 07:00N 41°42' E 029°24'611.9
2018-Jun-11 06:30N 41°44' E 029°31'612.1
2018-Jun-11 06:00N 41°47' E 029°38'612.3
2018-Jun-11 05:30N 41°50' E 029°46'612.4
2018-Jun-11 05:00N 41°52' E 029°53'612.2
2018-Jun-11 04:29N 41°55' E 030°01'612.5
2018-Jun-11 04:00N 41°57' E 030°08'612.3
2018-Jun-11 03:30N 41°60' E 030°16'612.5
2018-Jun-11 03:00N 42°02' E 030°23'612.4
2018-Jun-11 02:29N 42°05' E 030°31'612.5
2018-Jun-11 02:00N 42°08' E 030°39'612.4
2018-Jun-11 01:30N 42°10' E 030°46'612.3
2018-Jun-11 01:00N 42°13' E 030°54'812.1
2018-Jun-11 00:23N 42°16' E 031°03'512.1
2018-Jun-11 00:00N 42°18' E 031°09'1212.2
2018-Jun-10 23:01N 42°23' E 031°23'012.6
2018-Jun-10 22:59N 42°24' E 031°23'612.6
2018-Jun-10 22:30N 42°26' E 031°31'612.7
2018-Jun-10 22:00N 42°28' E 031°39'612.4
2018-Jun-10 21:30N 42°31' E 031°47'612.5
2018-Jun-10 21:00N 42°34' E 031°54'612.6
2018-Jun-10 20:30N 42°36' E 032°02'612.5
2018-Jun-10 20:00N 42°39' E 032°10'612.6
2018-Jun-10 19:30N 42°41' E 032°18'612.4
2018-Jun-10 19:00N 42°44' E 032°25'612.1
2018-Jun-10 18:30N 42°47' E 032°33'612.2
2018-Jun-10 18:00N 42°49' E 032°40'612.2
2018-Jun-10 17:30N 42°52' E 032°48'612.4
2018-Jun-10 17:00N 42°54' E 032°55'612.4
2018-Jun-10 16:30N 42°57' E 033°03'612.1
2018-Jun-10 16:00N 42°59' E 033°11'612.0
2018-Jun-10 15:30N 43°02' E 033°18'612.3
2018-Jun-10 15:00N 43°04' E 033°26'1212.1
2018-Jun-10 14:00N 43°10' E 033°41'612.1
2018-Jun-10 13:30N 43°12' E 033°48'812.5
2018-Jun-10 12:52N 43°16' E 033°58'712.6
2018-Jun-10 12:19N 43°19' E 034°07'1112.4
2018-Jun-10 11:27N 43°23' E 034°20'3711.9
2018-Jun-10 08:23N 43°38' E 035°06'512.2
2018-Jun-10 07:57N 43°41' E 035°12'9812.2
2018-Jun-09 23:57N 44°23' E 037°15'612.1
2018-Jun-09 23:30N 44°25' E 037°22'612.2
2018-Jun-09 23:00N 44°28' E 037°30'612.1
2018-Jun-09 22:30N 44°31' E 037°37'5 9.2
2018-Jun-09 22:00N 44°34' E 037°42'4 7.0
2018-Jun-09 21:30N 44°37' E 037°43'1 1.1
2018-Jun-09 21:00N 44°37' E 037°43'0 0.2
2018-Jun-09 20:30N 44°37' E 037°43'0 0.1
2018-Jun-09 20:00N 44°37' E 037°43'0 0.6
2018-Jun-09 19:30N 44°37' E 037°43'0 0.4
2018-Jun-09 19:00N 44°36' E 037°43'0 0.4
2018-Jun-09 18:30N 44°36' E 037°43'0 0.3
2018-Jun-09 18:00N 44°36' E 037°43'0 0.0
2018-Jun-09 17:30N 44°36' E 037°43'1 2.8
2018-Jun-09 17:00N 44°36' E 037°41'4 7.1
2018-Jun-09 16:30N 44°36' E 037°36'2 3.4
2018-Jun-09 16:00N 44°37' E 037°36'0 0.7
2018-Jun-09 15:29N 44°38' E 037°37'0 0.0
2018-Jun-08 22:50N 44°38' E 037°37'0 0.2
2018-Jun-08 22:30N 44°38' E 037°36'1 2.3
2018-Jun-08 22:00N 44°37' E 037°35'1 2.6
2018-Jun-08 21:30N 44°36' E 037°35'1 1.2
2018-Jun-08 21:00N 44°35' E 037°36'2 4.3
2018-Jun-08 20:30N 44°33' E 037°35'2 3.6
2018-Jun-08 20:00N 44°32' E 037°34'1 1.0
2018-Jun-08 19:30N 44°32' E 037°35'0 0.9
2018-Jun-08 19:00N 44°32' E 037°36'0 0.9
2018-Jun-08 18:30N 44°32' E 037°36'3 6.8
2018-Jun-08 18:00N 44°30' E 037°41'4 8.9
2018-Jun-08 17:30N 44°29' E 037°46'2 4.2
2018-Jun-08 17:00N 44°28' E 037°49'0 0.7
2018-Jun-08 16:30N 44°28' E 037°50'0 0.6
2018-Jun-08 16:00N 44°28' E 037°50'0 0.4
2018-Jun-08 15:30N 44°28' E 037°50'1 1.9
2018-Jun-08 14:59N 44°29' E 037°51'3 7.2
2018-Jun-08 14:30N 44°32' E 037°53'0 0.9
2018-Jun-08 14:00N 44°32' E 037°53'0 0.3
2018-Jun-08 13:30N 44°32' E 037°53'0 0.3
2018-Jun-08 13:00N 44°32' E 037°53'0 0.3
2018-Jun-08 12:30N 44°32' E 037°53'0 0.3
2018-Jun-08 12:00N 44°32' E 037°53'0 0.3
2018-Jun-08 11:30N 44°32' E 037°53'0 0.3
2018-Jun-08 11:00N 44°31' E 037°53'0 0.3
2018-Jun-08 10:30N 44°31' E 037°53'0 0.3
2018-Jun-08 10:00N 44°31' E 037°53'0 0.3
2018-Jun-08 09:30N 44°31' E 037°54'0 0.4
2018-Jun-08 09:00N 44°31' E 037°54'0 0.4
2018-Jun-08 08:30N 44°31' E 037°54'0 0.4
2018-Jun-08 08:00N 44°30' E 037°54'0 0.5
2018-Jun-08 07:30N 44°30' E 037°54'0 0.4
2018-Jun-08 07:00N 44°30' E 037°54'0 0.5
2018-Jun-08 06:30N 44°30' E 037°54'0 0.5
2018-Jun-08 06:00N 44°30' E 037°55'0 0.5
2018-Jun-08 05:30N 44°29' E 037°55'0 0.5
2018-Jun-08 05:00N 44°29' E 037°55'0 0.5
2018-Jun-08 04:30N 44°29' E 037°55'0 0.4
2018-Jun-08 04:00N 44°29' E 037°55'0 0.4
2018-Jun-08 03:30N 44°29' E 037°55'0 0.8
2018-Jun-08 03:00N 44°29' E 037°56'2 3.6
2018-Jun-08 02:30N 44°31' E 037°56'0 0.5
2018-Jun-08 02:00N 44°31' E 037°56'0 0.6
2018-Jun-08 01:30N 44°30' E 037°56'0 0.5
2018-Jun-08 01:00N 44°30' E 037°56'0 0.4
2018-Jun-08 00:30N 44°30' E 037°57'0 0.2
2018-Jun-08 00:00N 44°30' E 037°57'1 2.6
2018-Jun-07 23:30N 44°30' E 037°55'4 8.6
2018-Jun-07 23:00N 44°32' E 037°49'2 3.2
2018-Jun-07 22:30N 44°31' E 037°47'1 1.4
2018-Jun-07 22:00N 44°31' E 037°48'1 1.3
2018-Jun-07 21:30N 44°31' E 037°49'1 1.3
2018-Jun-07 21:00N 44°31' E 037°50'1 1.3
2018-Jun-07 20:30N 44°31' E 037°51'1 1.3
2018-Jun-07 20:00N 44°31' E 037°52'1 1.2
2018-Jun-07 19:30N 44°31' E 037°52'1 1.1
2018-Jun-07 19:00N 44°31' E 037°53'1 1.4
2018-Jun-07 18:30N 44°30' E 037°54'  

Dump ship's entire track history